createdAt,value
2023-04-15T00:01:49.995Z,51.85
2023-04-15T00:04:16.586Z,51.72
2023-04-15T00:06:43.079Z,51.88
2023-04-15T00:09:09.552Z,51.79
2023-04-15T00:11:35.991Z,52.18
2023-04-15T00:14:02.395Z,52.12
2023-04-15T00:16:28.945Z,52.23
2023-04-15T00:18:55.501Z,52.11
2023-04-15T00:21:22.082Z,51.59
2023-04-15T00:23:52.486Z,51.83
2023-04-15T00:26:19.625Z,51.46
2023-04-15T00:28:47.241Z,51.69
2023-04-15T00:31:14.195Z,52.13
2023-04-15T00:33:40.686Z,52.23
2023-04-15T00:36:07.311Z,52.35
2023-04-15T00:38:33.780Z,52.01
2023-04-15T00:41:00.262Z,52.24
2023-04-15T00:43:27.672Z,52.57
2023-04-15T00:45:55.876Z,52.84
2023-04-15T00:48:22.995Z,52.29
2023-04-15T00:50:49.457Z,52.62
2023-04-15T00:53:15.902Z,52.81
2023-04-15T00:55:42.531Z,52.72
2023-04-15T00:58:08.933Z,53.61
2023-04-15T01:00:35.869Z,52.91
2023-04-15T01:03:03.209Z,52.99
2023-04-15T01:05:31.131Z,52.73
2023-04-15T01:07:57.995Z,53.00
2023-04-15T01:10:24.383Z,53.35
2023-04-15T01:12:51.273Z,53.58
2023-04-15T01:15:17.859Z,53.63
2023-04-15T01:17:44.668Z,53.84
2023-04-15T01:20:12.054Z,53.78
2023-04-15T01:22:39.432Z,53.96
2023-04-15T01:25:15.790Z,53.96
2023-04-15T01:27:42.532Z,54.26
2023-04-15T01:30:10.520Z,54.31
2023-04-15T01:32:38.065Z,54.60
2023-04-15T01:35:04.909Z,55.19
2023-04-15T01:37:32.278Z,55.49
2023-04-15T01:39:58.650Z,55.22
2023-04-15T01:42:25.181Z,55.54
2023-04-15T01:44:52.053Z,55.86
2023-04-15T01:47:18.526Z,55.63
2023-04-15T01:49:44.938Z,56.33
2023-04-15T01:52:11.373Z,56.80
2023-04-15T01:54:40.045Z,56.89
2023-04-15T01:57:06.524Z,56.63
2023-04-15T01:59:33.075Z,57.22
2023-04-15T02:02:00.382Z,57.90
2023-04-15T02:04:27.925Z,58.37
2023-04-15T02:06:54.415Z,58.13
2023-04-15T02:09:21.525Z,59.25
2023-04-15T02:11:48.096Z,59.71
2023-04-15T02:14:14.507Z,60.10
2023-04-15T02:16:41.235Z,59.75
2023-04-15T02:19:08.075Z,59.55
2023-04-15T02:21:37.293Z,60.10
2023-04-15T02:24:04.203Z,60.51
2023-04-15T02:26:32.592Z,60.18
2023-04-15T02:28:59.797Z,59.59
2023-04-15T02:31:26.642Z,60.92
2023-04-15T02:33:53.060Z,60.39
2023-04-15T02:36:21.021Z,60.34
2023-04-15T02:38:47.456Z,60.25
2023-04-15T02:41:15.528Z,60.41
2023-04-15T02:43:44.002Z,60.71
2023-04-15T02:46:14.655Z,59.71
2023-04-15T02:48:41.686Z,60.25
2023-04-15T02:51:16.867Z,59.46
2023-04-15T02:53:43.358Z,60.27
2023-04-15T02:56:09.995Z,60.89
2023-04-15T02:58:36.561Z,60.61
2023-04-15T03:01:03.200Z,60.86
2023-04-15T03:03:29.809Z,60.43
2023-04-15T03:05:56.481Z,60.39
2023-04-15T03:08:23.831Z,60.65
2023-04-15T03:10:52.304Z,60.43
2023-04-15T03:13:19.372Z,61.11
2023-04-15T03:15:49.221Z,61.59
2023-04-15T03:18:15.710Z,61.60
2023-04-15T03:20:42.525Z,60.90
2023-04-15T03:23:09.428Z,61.81
2023-04-15T03:25:37.355Z,61.59
2023-04-15T03:28:06.009Z,62.41
2023-04-15T03:30:33.125Z,62.27
2023-04-15T03:32:59.782Z,62.65
2023-04-15T03:35:26.263Z,63.00
2023-04-15T03:37:52.652Z,62.82
2023-04-15T03:40:19.048Z,62.62
2023-04-15T03:42:45.442Z,63.11
2023-04-15T03:45:11.913Z,63.72
2023-04-15T03:47:38.391Z,63.94
2023-04-15T03:50:05.351Z,63.63
2023-04-15T03:52:31.746Z,64.08
2023-04-15T03:54:58.262Z,64.05
2023-04-15T03:57:24.626Z,63.89
2023-04-15T03:59:51.186Z,64.32
2023-04-15T04:02:17.883Z,64.29
2023-04-15T04:04:44.444Z,64.23
2023-04-15T04:07:20.256Z,63.82
2023-04-15T04:09:47.434Z,64.45
2023-04-15T04:12:14.095Z,65.06
2023-04-15T04:14:40.753Z,64.62
2023-04-15T04:17:07.277Z,65.00
2023-04-15T04:19:34.243Z,64.84
2023-04-15T04:22:00.972Z,65.00
2023-04-15T04:24:27.334Z,65.13
2023-04-15T04:26:53.798Z,65.40
2023-04-15T04:29:20.178Z,65.84
2023-04-15T04:31:48.575Z,65.59
2023-04-15T04:34:15.925Z,65.57
2023-04-15T04:36:42.394Z,66.18
2023-04-15T04:39:08.925Z,65.87
2023-04-15T04:41:35.332Z,66.37
2023-04-15T04:44:01.819Z,65.48
2023-04-15T04:46:28.504Z,66.07
2023-04-15T04:49:20.565Z,67.07
2023-04-15T04:51:48.462Z,67.14
2023-04-15T04:54:14.890Z,67.17
2023-04-15T04:56:41.475Z,66.71
2023-04-15T04:59:07.975Z,67.31
2023-04-15T05:01:34.428Z,67.03
2023-04-15T05:04:01.345Z,67.16
2023-04-15T05:06:30.439Z,67.24
2023-04-15T05:08:56.892Z,67.60
2023-04-15T05:11:23.367Z,67.68
2023-04-15T05:13:49.801Z,68.29
2023-04-15T05:16:16.716Z,67.84
2023-04-15T05:18:43.155Z,68.20
2023-04-15T05:21:09.570Z,67.93
2023-04-15T05:23:36.070Z,68.09
2023-04-15T05:26:02.468Z,68.55
2023-04-15T05:28:28.835Z,68.42
2023-04-15T05:30:55.490Z,68.53
2023-04-15T05:33:21.894Z,68.67
2023-04-15T05:35:48.293Z,68.92
2023-04-15T05:38:14.846Z,68.53
2023-04-15T05:40:41.323Z,69.18
2023-04-15T05:43:07.780Z,69.16
2023-04-15T05:45:34.192Z,68.34
2023-04-15T05:48:00.657Z,68.67
2023-04-15T05:50:27.116Z,68.29
2023-04-15T05:52:53.549Z,68.39
2023-04-15T05:55:20.423Z,68.14
2023-04-15T05:57:47.017Z,68.77
2023-04-15T06:00:14.412Z,68.51
2023-04-15T06:02:41.668Z,68.20
2023-04-15T06:05:11.841Z,68.67
2023-04-15T06:07:39.036Z,68.40
2023-04-15T06:10:06.168Z,68.72
2023-04-15T06:12:32.867Z,67.56
2023-04-15T06:15:00.275Z,67.20
2023-04-15T06:17:26.938Z,67.19
2023-04-15T06:19:56.460Z,67.29
2023-04-15T06:22:23.891Z,67.41
2023-04-15T06:24:51.503Z,67.75
2023-04-15T06:27:18.045Z,66.65
2023-04-15T06:29:44.756Z,66.83
2023-04-15T06:32:11.858Z,66.75
2023-04-15T06:34:38.319Z,66.99
2023-04-15T06:37:06.311Z,67.00
2023-04-15T06:39:33.037Z,66.40
2023-04-15T06:41:59.478Z,67.12
2023-04-15T06:44:26.132Z,66.97
2023-04-15T06:46:52.699Z,67.51
2023-04-15T06:49:19.100Z,67.31
2023-04-15T06:51:45.632Z,66.79
2023-04-15T06:54:12.062Z,67.32
2023-04-15T06:56:38.542Z,66.08
2023-04-15T06:59:04.905Z,65.23
2023-04-15T07:01:31.399Z,65.49
2023-04-15T07:03:57.938Z,65.18
2023-04-15T07:06:24.691Z,64.55
2023-04-15T07:08:51.188Z,64.12
2023-04-15T07:11:17.578Z,64.36
2023-04-15T07:13:44.008Z,64.51
2023-04-15T07:16:10.503Z,64.29
2023-04-15T07:18:37.237Z,63.74
2023-04-15T07:21:03.842Z,63.68
2023-04-15T07:23:30.264Z,63.90
2023-04-15T07:25:57.351Z,65.03
2023-04-15T07:28:23.769Z,65.21
2023-04-15T07:30:50.337Z,65.04
2023-04-15T07:33:16.818Z,64.27
2023-04-15T07:35:43.466Z,64.76
2023-04-15T07:38:09.859Z,64.59
2023-04-15T07:40:36.302Z,64.84
2023-04-15T07:43:03.393Z,64.17
2023-04-15T07:45:29.979Z,65.47
2023-04-15T07:47:56.714Z,64.37
2023-04-15T07:50:24.059Z,63.75
2023-04-15T07:52:51.442Z,63.04
2023-04-15T07:55:20.029Z,62.87
2023-04-15T07:57:47.427Z,62.84
2023-04-15T08:00:14.868Z,63.21
2023-04-15T08:02:42.712Z,63.11
2023-04-15T08:05:10.661Z,63.25
2023-04-15T08:07:38.313Z,62.56
2023-04-15T08:10:05.220Z,61.97
2023-04-15T08:12:32.003Z,60.92
2023-04-15T08:14:58.739Z,61.26
2023-04-15T08:17:25.462Z,62.40
2023-04-15T08:19:52.138Z,62.03
2023-04-15T08:22:19.631Z,60.81
2023-04-15T08:24:47.222Z,61.33
2023-04-15T08:27:13.822Z,61.78
2023-04-15T08:29:40.696Z,61.48
2023-04-15T08:32:07.575Z,60.38
2023-04-15T08:34:34.765Z,61.02
2023-04-15T08:37:01.203Z,60.14
2023-04-15T08:39:28.247Z,59.46
2023-04-15T08:42:02.561Z,60.47
2023-04-15T08:44:31.480Z,60.41
2023-04-15T08:47:02.861Z,60.54
2023-04-15T08:49:30.485Z,61.27
2023-04-15T08:51:59.288Z,60.37
2023-04-15T08:54:27.130Z,60.15
2023-04-15T08:56:53.880Z,60.84
2023-04-15T08:59:22.153Z,60.67
2023-04-15T09:01:51.069Z,59.49
2023-04-15T09:04:18.226Z,58.98
2023-04-15T09:06:44.892Z,58.91
2023-04-15T09:09:14.288Z,59.42
2023-04-15T09:11:41.312Z,59.70
2023-04-15T09:14:08.176Z,60.21
2023-04-15T09:17:00.710Z,60.78
2023-04-15T09:19:27.844Z,59.47
2023-04-15T09:21:58.959Z,58.70
2023-04-15T09:24:34.205Z,59.17
2023-04-15T09:27:01.086Z,58.43
2023-04-15T09:29:27.864Z,57.48
2023-04-15T09:31:54.252Z,57.33
2023-04-15T09:34:21.406Z,57.60
2023-04-15T09:36:49.768Z,56.93
2023-04-15T09:39:17.360Z,56.36
2023-04-15T09:41:44.520Z,54.94
2023-04-15T09:44:27.017Z,55.95
2023-04-15T09:46:53.582Z,55.91
2023-04-15T09:49:20.798Z,55.52
2023-04-15T09:51:57.907Z,56.01
2023-04-15T09:54:38.659Z,55.09
2023-04-15T09:57:10.049Z,55.38
2023-04-15T09:59:36.732Z,55.55
2023-04-15T10:02:06.549Z,55.71
2023-04-15T10:04:39.735Z,56.36
2023-04-15T10:07:07.304Z,54.82
2023-04-15T10:09:36.319Z,54.58
2023-04-15T10:12:05.864Z,54.96
2023-04-15T10:14:38.660Z,53.80
2023-04-15T10:17:06.025Z,54.05
2023-04-15T10:19:36.416Z,54.53
2023-04-15T10:22:03.797Z,55.26
2023-04-15T10:24:32.847Z,55.34
2023-04-15T10:27:00.535Z,55.18
2023-04-15T10:29:27.668Z,54.95
2023-04-15T10:31:58.911Z,54.85
2023-04-15T10:34:26.845Z,55.05
2023-04-15T10:36:58.258Z,54.19
2023-04-15T10:39:51.154Z,54.18
2023-04-15T10:42:19.563Z,55.22
2023-04-15T10:44:54.180Z,55.35
2023-04-15T10:47:22.028Z,54.29
2023-04-15T10:49:51.026Z,54.21
2023-04-15T10:52:22.772Z,54.46
2023-04-15T10:54:49.186Z,54.14
2023-04-15T10:57:22.680Z,54.17
2023-04-15T11:00:01.873Z,54.65
2023-04-15T11:02:43.664Z,54.28
2023-04-15T11:05:14.638Z,54.89
2023-04-15T11:07:46.914Z,55.21
2023-04-15T11:10:13.367Z,55.16
2023-04-15T11:12:41.806Z,55.74
2023-04-15T11:15:29.514Z,55.70
2023-04-15T11:18:08.750Z,55.56
2023-04-15T11:20:35.944Z,55.76
2023-04-15T11:23:08.379Z,55.25
2023-04-15T11:25:43.018Z,54.76
2023-04-15T11:28:10.908Z,54.20
2023-04-15T11:30:38.474Z,54.41
2023-04-15T11:33:06.942Z,54.47
2023-04-15T11:35:33.471Z,53.92
2023-04-15T11:38:06.069Z,53.83
2023-04-15T11:40:33.460Z,53.98
2023-04-15T11:43:11.414Z,52.84
2023-04-15T11:45:48.159Z,53.24
2023-04-15T11:48:14.918Z,52.00
2023-04-15T11:50:41.573Z,51.22
2023-04-15T11:53:10.434Z,52.02
2023-04-15T11:55:43.449Z,51.17
2023-04-15T11:58:23.250Z,51.97
2023-04-15T12:01:00.573Z,52.56
2023-04-15T12:03:33.040Z,51.81
2023-04-15T12:06:22.022Z,51.13
2023-04-15T12:09:06.818Z,51.51
2023-04-15T12:11:40.550Z,51.25
2023-04-15T12:14:08.360Z,50.17
2023-04-15T12:16:48.180Z,49.32
2023-04-15T12:19:18.563Z,50.52
2023-04-15T12:21:48.059Z,50.85
2023-04-15T12:24:14.646Z,51.57
2023-04-15T12:27:05.535Z,50.75
2023-04-15T12:29:33.294Z,50.85
2023-04-15T12:32:09.335Z,51.00
2023-04-15T12:34:38.652Z,50.22
2023-04-15T12:37:07.887Z,50.43
2023-04-15T12:39:39.658Z,50.37
2023-04-15T12:42:08.264Z,50.49
2023-04-15T12:44:36.256Z,50.38
2023-04-15T12:47:03.127Z,50.14
2023-04-15T12:49:30.661Z,50.41
2023-04-15T12:51:59.992Z,50.85
2023-04-15T12:54:27.111Z,50.44
2023-04-15T12:56:54.588Z,51.44
2023-04-15T12:59:21.783Z,52.50
2023-04-15T13:01:48.831Z,52.57
2023-04-15T13:04:17.024Z,48.94
2023-04-15T13:06:43.855Z,49.53
2023-04-15T13:09:10.700Z,49.83
2023-04-15T13:11:37.420Z,50.48
2023-04-15T13:14:07.136Z,51.42
2023-04-15T13:16:34.528Z,50.98
2023-04-15T13:19:01.881Z,52.33
2023-04-15T13:21:28.593Z,53.67
2023-04-15T13:23:55.619Z,53.82
2023-04-15T13:26:22.112Z,53.52
2023-04-15T13:28:48.525Z,52.83
2023-04-15T13:31:15.045Z,52.31
2023-04-15T13:33:41.574Z,52.57
2023-04-15T13:36:08.402Z,53.19
2023-04-15T13:38:34.892Z,53.26
2023-04-15T13:41:01.469Z,53.45
2023-04-15T13:43:28.250Z,53.31
2023-04-15T13:45:55.267Z,53.30
2023-04-15T13:48:21.737Z,53.74
2023-04-15T13:50:48.114Z,53.33
2023-04-15T13:53:14.550Z,53.86
2023-04-15T13:55:42.666Z,54.22
2023-04-15T13:58:10.014Z,54.96
2023-04-15T14:00:36.636Z,54.42
2023-04-15T14:03:03.367Z,54.28
2023-04-15T14:05:29.968Z,52.35
2023-04-15T14:07:56.405Z,53.26
2023-04-15T14:10:22.862Z,53.29
2023-04-15T14:12:49.288Z,53.26
2023-04-15T14:15:15.924Z,54.64
2023-04-15T14:17:42.689Z,54.34
2023-04-15T14:20:09.822Z,54.76
2023-04-15T14:22:36.343Z,55.37
2023-04-15T14:25:02.817Z,54.36
2023-04-15T14:27:29.386Z,54.62
2023-04-15T14:29:57.630Z,54.42
2023-04-15T14:32:26.159Z,54.46
2023-04-15T14:34:52.690Z,54.07
2023-04-15T14:37:19.221Z,53.06
2023-04-15T14:39:45.608Z,53.49
2023-04-15T14:42:11.982Z,54.60
2023-04-15T14:44:38.360Z,54.61
2023-04-15T14:47:05.913Z,53.81
2023-04-15T14:49:32.402Z,52.91
2023-04-15T14:51:58.864Z,53.05
2023-04-15T14:54:25.342Z,53.64
2023-04-15T14:56:51.717Z,53.26
2023-04-15T14:59:18.152Z,54.01
2023-04-15T15:01:44.822Z,54.03
2023-04-15T15:04:11.683Z,54.29
2023-04-15T15:06:38.680Z,54.64
2023-04-15T15:09:05.323Z,54.46
2023-04-15T15:11:31.967Z,54.51
2023-04-15T15:13:58.403Z,55.77
2023-04-15T15:16:25.129Z,55.97
2023-04-15T15:18:51.607Z,55.90
2023-04-15T15:21:18.464Z,56.31
2023-04-15T15:23:45.917Z,55.72
2023-04-15T15:26:12.573Z,56.36
2023-04-15T15:28:39.011Z,56.58
2023-04-15T15:31:05.879Z,56.45
2023-04-15T15:33:32.769Z,55.01
2023-04-15T15:35:59.196Z,55.00
2023-04-15T15:38:26.194Z,55.45
2023-04-15T15:40:52.727Z,56.21
2023-04-15T15:43:19.167Z,55.85
2023-04-15T15:45:45.704Z,55.50
2023-04-15T15:48:12.264Z,57.65
2023-04-15T15:50:38.856Z,56.02
2023-04-15T15:53:05.363Z,56.60
2023-04-15T15:55:31.852Z,56.48
2023-04-15T15:57:58.254Z,57.08
2023-04-15T16:00:24.734Z,56.27
2023-04-15T16:03:05.273Z,57.03
2023-04-15T16:05:33.558Z,57.44
2023-04-15T16:08:00.051Z,57.74
2023-04-15T16:10:26.533Z,58.25
2023-04-15T16:12:52.964Z,58.05
2023-04-15T16:15:19.592Z,58.12
2023-04-15T16:17:46.035Z,58.43
2023-04-15T16:20:13.675Z,57.99
2023-04-15T16:22:40.213Z,58.39
2023-04-15T16:25:07.150Z,56.90
2023-04-15T16:27:34.962Z,58.08
2023-04-15T16:30:01.868Z,56.61
2023-04-15T16:32:28.282Z,56.89
2023-04-15T16:34:55.417Z,56.88
2023-04-15T16:37:21.909Z,56.92
2023-04-15T16:39:48.328Z,56.87
2023-04-15T16:42:14.751Z,57.60
2023-04-15T16:44:41.154Z,58.03
2023-04-15T16:47:09.706Z,57.89
2023-04-15T16:49:36.112Z,58.29
2023-04-15T16:52:02.586Z,58.38
2023-04-15T16:54:29.741Z,58.68
2023-04-15T16:56:58.453Z,58.91
2023-04-15T16:59:25.754Z,58.52
2023-04-15T17:01:52.335Z,58.37
2023-04-15T17:04:19.052Z,59.18
2023-04-15T17:06:45.979Z,59.07
2023-04-15T17:09:12.376Z,59.40
2023-04-15T17:11:40.503Z,59.49
2023-04-15T17:14:07.636Z,59.58
2023-04-15T17:16:34.013Z,59.92
2023-04-15T17:19:00.477Z,59.66
2023-04-15T17:21:27.362Z,59.58
2023-04-15T17:23:53.864Z,59.43
2023-04-15T17:26:20.256Z,59.93
2023-04-15T17:28:46.690Z,60.41
2023-04-15T17:31:13.290Z,59.73
2023-04-15T17:34:00.244Z,59.83
2023-04-15T17:36:27.254Z,60.08
2023-04-15T17:38:56.561Z,59.52
2023-04-15T17:41:23.763Z,59.87
2023-04-15T17:43:50.525Z,60.00
2023-04-15T17:46:17.083Z,60.51
2023-04-15T17:48:43.573Z,60.45
2023-04-15T17:51:10.164Z,60.75
2023-04-15T17:53:36.565Z,60.80
2023-04-15T17:56:03.007Z,60.41
2023-04-15T17:58:30.012Z,60.84
2023-04-15T18:00:56.616Z,61.05
2023-04-15T18:03:23.288Z,60.97
2023-04-15T18:05:49.818Z,61.20
2023-04-15T18:08:16.297Z,61.04
2023-04-15T18:10:42.736Z,60.78
2023-04-15T18:13:09.160Z,60.90
2023-04-15T18:15:35.874Z,61.31
2023-04-15T18:18:02.652Z,60.98
2023-04-15T18:20:29.252Z,62.13
2023-04-15T18:22:55.793Z,61.96
2023-04-15T18:25:22.223Z,62.23
2023-04-15T18:27:48.977Z,62.07
2023-04-15T18:30:15.424Z,61.03
2023-04-15T18:32:41.992Z,61.74
2023-04-15T18:35:08.903Z,61.67
2023-04-15T18:37:35.696Z,62.46
2023-04-15T18:40:02.204Z,61.79
2023-04-15T18:42:28.751Z,62.71
2023-04-15T18:44:55.271Z,62.74
2023-04-15T18:47:21.966Z,62.12
2023-04-15T18:49:48.387Z,62.66
2023-04-15T18:52:14.864Z,62.79
2023-04-15T18:54:41.260Z,63.26
2023-04-15T18:57:07.767Z,62.65
2023-04-15T18:59:34.682Z,62.60
2023-04-15T19:02:02.130Z,62.89
2023-04-15T19:04:29.397Z,62.76
2023-04-15T19:06:56.039Z,62.75
2023-04-15T19:09:22.579Z,63.20
2023-04-15T19:11:48.969Z,63.34
2023-04-15T19:14:15.399Z,62.75
2023-04-15T19:16:41.868Z,63.24
2023-04-15T19:19:08.337Z,63.55
2023-04-15T19:21:34.846Z,63.02
2023-04-15T19:24:01.455Z,62.77
2023-04-15T19:26:28.021Z,62.79
2023-04-15T19:28:54.836Z,62.47
2023-04-15T19:31:21.326Z,62.79
2023-04-15T19:33:47.755Z,62.51
2023-04-15T19:36:14.391Z,61.12
2023-04-15T19:38:40.931Z,62.69
2023-04-15T19:41:09.638Z,62.88
2023-04-15T19:43:36.533Z,63.25
2023-04-15T19:46:04.121Z,63.11
2023-04-15T19:48:30.609Z,61.80
2023-04-15T19:50:57.333Z,62.57
2023-04-15T19:53:25.576Z,62.52
2023-04-15T19:55:52.141Z,63.29
2023-04-15T19:58:18.617Z,63.15
2023-04-15T20:00:44.999Z,63.54
2023-04-15T20:03:11.718Z,63.18
2023-04-15T20:05:38.279Z,62.80
2023-04-15T20:08:04.905Z,63.01
2023-04-15T20:10:31.999Z,62.73
2023-04-15T20:12:58.551Z,62.92
2023-04-15T20:15:25.018Z,62.84
2023-04-15T20:17:51.626Z,62.63
2023-04-15T20:20:18.562Z,63.35
2023-04-15T20:22:45.307Z,63.00
2023-04-15T20:25:11.843Z,63.06
2023-04-15T20:27:38.364Z,63.12
2023-04-15T20:30:05.911Z,63.94
2023-04-15T20:32:35.250Z,63.82
2023-04-15T20:35:03.315Z,63.51
2023-04-15T20:37:30.809Z,63.61
2023-04-15T20:39:57.463Z,64.23
2023-04-15T20:42:23.950Z,64.56
2023-04-15T20:44:50.412Z,64.27
2023-04-15T20:47:17.057Z,64.25
2023-04-15T20:49:43.736Z,64.21
2023-04-15T20:52:10.642Z,64.80
2023-04-15T20:54:37.050Z,64.49
2023-04-15T20:57:03.618Z,65.12
2023-04-15T20:59:30.423Z,64.86
2023-04-15T21:01:57.490Z,65.23
2023-04-15T21:04:24.443Z,64.72
2023-04-15T21:06:52.033Z,65.28
2023-04-15T21:09:18.876Z,65.60
2023-04-15T21:12:00.464Z,65.55
2023-04-15T21:14:28.292Z,65.09
2023-04-15T21:16:54.800Z,65.58
2023-04-15T21:19:21.306Z,65.53
2023-04-15T21:21:47.678Z,65.92
2023-04-15T21:24:14.109Z,65.86
2023-04-15T21:26:40.656Z,65.93
2023-04-15T21:29:09.473Z,66.05
2023-04-15T21:31:37.809Z,66.33
2023-04-15T21:34:04.236Z,65.44
2023-04-15T21:36:31.581Z,65.95
2023-04-15T21:38:58.007Z,66.01
2023-04-15T21:41:24.463Z,66.73
2023-04-15T21:43:50.992Z,66.50
2023-04-15T21:46:22.892Z,66.64
2023-04-15T21:48:52.410Z,66.63
2023-04-15T21:51:18.829Z,66.66
2023-04-15T21:53:45.273Z,66.45
2023-04-15T21:56:11.984Z,67.15
2023-04-15T21:58:38.468Z,66.90
2023-04-15T22:01:05.121Z,66.70
2023-04-15T22:03:33.901Z,66.71
2023-04-15T22:06:02.201Z,67.82
2023-04-15T22:08:28.831Z,67.46
2023-04-15T22:10:55.443Z,67.91
2023-04-15T22:13:21.910Z,68.29
2023-04-15T22:15:48.356Z,67.76
2023-04-15T22:18:14.836Z,68.56
2023-04-15T22:20:41.377Z,69.01
2023-04-15T22:23:08.924Z,68.17
2023-04-15T22:25:38.384Z,69.02
2023-04-15T22:28:08.153Z,69.54
2023-04-15T22:30:42.067Z,69.99
2023-04-15T22:33:09.643Z,70.55
2023-04-15T22:35:37.140Z,71.66
2023-04-15T22:38:04.665Z,71.97
2023-04-15T22:40:31.151Z,72.34
2023-04-15T22:42:57.585Z,73.56
2023-04-15T22:45:24.056Z,73.85
2023-04-15T22:47:50.587Z,73.83
2023-04-15T22:50:17.062Z,74.08
2023-04-15T22:52:46.088Z,74.49
2023-04-15T22:55:12.855Z,74.73
2023-04-15T22:57:39.318Z,74.77
2023-04-15T23:00:07.211Z,74.89
2023-04-15T23:02:34.761Z,74.91
2023-04-15T23:05:03.484Z,75.99
2023-04-15T23:07:38.498Z,75.93
2023-04-15T23:10:05.399Z,75.41
2023-04-15T23:12:31.792Z,75.65
2023-04-15T23:14:58.181Z,76.10
2023-04-15T23:17:24.636Z,76.31
2023-04-15T23:19:51.461Z,75.57
2023-04-15T23:22:18.371Z,76.99
2023-04-15T23:24:44.744Z,77.14
2023-04-15T23:27:11.223Z,76.72
2023-04-15T23:29:37.721Z,77.48
2023-04-15T23:32:04.323Z,77.89
2023-04-15T23:34:30.813Z,77.26
2023-04-15T23:36:57.188Z,77.26
2023-04-15T23:39:23.624Z,77.57
2023-04-15T23:41:50.497Z,77.74
2023-04-15T23:44:16.966Z,77.79
2023-04-15T23:46:43.420Z,77.63
2023-04-15T23:49:10.068Z,77.11
2023-04-15T23:51:36.674Z,77.89
2023-04-15T23:54:03.155Z,77.26
2023-04-15T23:56:29.520Z,77.93
2023-04-15T23:58:55.911Z,77.90
